Time;durP1;ratioP1;P1;durP2;ratioP2;P2;SDS_P1;SDS_P2;PMS_P1;PMS_P2;Temp;Humidity;BMP_temperature;BMP_pressure;BME280_temperature;BME280_humidity;BME280_pressure;Samples;Min_cycle;Max_cycle;Signal;HPM_P1;HPM_P2
2022/08/09 00:01:06;;;;;;;5.43;3.70;;;;;;;19.32;62.28;102601.22;4996310;28;20034;-67
2022/08/09 00:03:32;;;;;;;7.20;3.60;;;;;;;19.37;61.79;102591.41;4996119;28;20081;-67
2022/08/09 00:05:57;;;;;;;7.07;3.60;;;;;;;19.37;62.14;102597.66;4996243;28;20131;-67
2022/08/09 00:08:23;;;;;;;7.82;3.97;;;;;;;19.35;62.24;102599.41;4996050;28;20412;-67
2022/08/09 00:10:48;;;;;;;6.38;3.80;;;;;;;19.23;62.75;102597.63;4995954;28;20085;-67
2022/08/09 00:13:14;;;;;;;6.47;3.63;;;;;;;19.14;63.34;102597.59;4995863;28;20026;-67
2022/08/09 00:15:40;;;;;;;8.27;3.80;;;;;;;19.08;63.12;102597.56;4995944;28;20030;-67
2022/08/09 00:18:05;;;;;;;6.43;3.63;;;;;;;18.99;63.51;102592.16;4995860;28;20030;-67
2022/08/09 00:20:30;;;;;;;7.45;4.00;;;;;;;19.03;63.34;102588.59;4978411;28;20041;-67
2022/08/09 00:22:56;;;;;;;7.90;3.67;;;;;;;19.01;63.30;102591.28;4995982;28;20524;-67
2022/08/09 00:25:21;;;;;;;6.13;3.63;;;;;;;18.94;63.64;102589.47;4995378;28;20587;-66
2022/08/09 00:27:47;;;;;;;5.82;3.53;;;;;;;19.00;63.48;102591.28;4995791;28;20050;-66
2022/08/09 00:30:12;;;;;;;5.95;3.65;;;;;;;18.95;63.57;102593.03;4995655;28;20364;-66
2022/08/09 00:32:38;;;;;;;7.75;3.88;;;;;;;19.00;63.54;102597.53;4995434;28;20030;-67
2022/08/09 00:35:04;;;;;;;7.22;3.97;;;;;;;18.98;63.18;102602.00;4995578;28;20061;-66
2022/08/09 00:37:29;;;;;;;4.60;3.58;;;;;;;18.98;63.22;102599.31;4995549;28;20038;-67
2022/08/09 00:39:55;;;;;;;6.18;3.58;;;;;;;18.96;63.51;102593.03;4995625;28;20030;-66
2022/08/09 00:42:21;;;;;;;6.90;3.80;;;;;;;18.88;63.78;102591.22;4995508;28;20109;-66
2022/08/09 00:44:47;;;;;;;8.15;3.95;;;;;;;18.88;63.34;102591.22;4995623;28;20556;-66
2022/08/09 00:47:13;;;;;;;6.47;3.80;;;;;;;18.82;63.82;102593.88;4995307;28;20385;-66
2022/08/09 00:49:38;;;;;;;8.07;3.80;;;;;;;18.76;64.00;102595.66;4995595;28;20026;-66
2022/08/09 00:52:05;;;;;;;7.68;3.75;;;;;;;18.80;63.57;102590.28;4995290;28;20498;-66
2022/08/09 00:54:31;;;;;;;7.90;3.58;;;;;;;18.79;63.51;102588.50;4995544;28;20029;-67
2022/08/09 00:56:56;;;;;;;6.88;3.75;;;;;;;18.89;63.25;102590.34;4995284;28;20034;-66
2022/08/09 00:59:22;;;;;;;7.93;3.70;;;;;;;18.89;63.21;102596.59;4995122;28;20109;-66
2022/08/09 01:01:50;;;;;;;5.70;3.65;;;;;;;18.93;63.17;102600.19;4995240;28;20062;-66
2022/08/09 01:04:33;;;;;;;10.02;3.53;;;;;;;18.87;62.94;102600.16;4995044;28;20030;-66
2022/08/09 01:07:21;;;;;;;4.75;3.40;;;;;;;18.86;62.65;102595.69;4995497;28;20041;-67
2022/08/09 01:09:52;;;;;;;7.32;3.60;;;;;;;18.83;63.12;102591.19;4995083;28;20388;-67
2022/08/09 01:12:42;;;;;;;6.88;3.45;;;;;;;18.84;63.32;102600.13;4994634;28;20033;-67
2022/08/09 01:15:15;;;;;;;6.18;3.40;;;;;;;18.81;63.63;102595.66;4995321;28;20030;-66
2022/08/09 01:18:00;;;;;;;9.00;3.50;;;;;;;18.73;63.65;102598.31;4994961;28;20022;-67
2022/08/09 01:20:43;;;;;;;6.07;3.33;;;;;;;18.79;62.89;102593.84;4994910;28;20034;-66
2022/08/09 01:23:27;;;;;;;10.82;3.60;;;;;;;18.80;63.17;102595.63;4994777;28;20030;-67
2022/08/09 01:26:23;;;;;;;5.40;3.40;;;;;;;18.75;63.36;102595.63;4994555;28;20034;-67
2022/08/09 01:28:55;;;;;;;6.20;3.55;;;;;;;18.69;63.71;102603.59;4977253;28;20054;-67
2022/08/09 01:31:24;;;;;;;7.03;3.73;;;;;;;18.76;63.08;102600.13;4994840;28;20034;-67
2022/08/09 01:33:51;;;;;;;8.23;3.70;;;;;;;18.77;63.04;102600.09;4994636;28;20034;-66
2022/08/09 01:36:21;;;;;;;7.05;3.67;;;;;;;18.71;63.39;102596.50;4993545;28;20106;-67
2022/08/09 01:38:49;;;;;;;9.15;3.60;;;;;;;18.61;63.82;102597.31;4994354;28;20049;-67
2022/08/09 01:41:22;;;;;;;6.22;3.42;;;;;;;18.57;64.07;102590.16;4994246;28;20034;-66
2022/08/09 01:43:51;;;;;;;7.03;3.45;;;;;;;18.52;64.25;102588.34;4994754;28;20038;-67
2022/08/09 01:46:20;;;;;;;7.75;3.85;;;;;;;18.50;64.26;102592.81;4994505;28;20074;-66
2022/08/09 01:48:47;;;;;;;7.30;3.80;;;;;;;18.51;64.15;102586.56;4994223;28;20121;-67
2022/08/09 01:51:15;;;;;;;5.55;3.50;;;;;;;18.51;64.13;102588.34;4994286;28;20022;-66
2022/08/09 01:53:42;;;;;;;5.88;3.70;;;;;;;18.43;64.42;102596.31;4994374;28;20061;-66
2022/08/09 01:56:10;;;;;;;6.15;3.65;;;;;;;18.49;63.85;102590.09;4993973;28;20027;-67
2022/08/09 01:58:37;;;;;;;6.70;3.70;;;;;;;18.44;64.40;102600.78;4994224;28;20500;-67
2022/08/09 02:01:04;;;;;;;8.02;3.80;;;;;;;18.43;64.55;102598.09;4994048;28;20048;-67
2022/08/09 02:03:32;;;;;;;9.80;3.45;;;;;;;18.29;64.84;102603.38;4994125;28;20155;-67
2022/08/09 02:06:01;;;;;;;7.80;3.70;;;;;;;18.18;65.36;102602.38;4993957;28;20484;-66
2022/08/09 02:08:30;;;;;;;9.90;4.30;;;;;;;18.12;65.27;102600.56;4994071;28;20480;-66
2022/08/09 02:10:57;;;;;;;7.30;4.10;;;;;;;18.12;65.49;102605.03;4993726;28;20031;-67
2022/08/09 02:13:25;;;;;;;7.07;4.10;;;;;;;18.05;65.56;102609.41;4992473;28;20054;-66
2022/08/09 02:15:54;;;;;;;9.27;4.18;;;;;;;18.02;65.76;102606.72;4994010;28;20078;-66
2022/08/09 02:18:28;;;;;;;8.30;4.30;;;;;;;17.96;66.00;102610.25;4993629;28;20023;-66
2022/08/09 02:21:02;;;;;;;7.20;4.50;;;;;;;17.89;66.13;102604.81;4993868;28;20472;-66
2022/08/09 02:23:37;;;;;;;6.68;4.05;;;;;;;17.81;66.21;102604.75;4993641;28;20023;-67
2022/08/09 02:26:05;;;;;;;9.38;4.25;;;;;;;17.83;66.05;102600.31;4993509;28;20057;-67
2022/08/09 02:28:33;;;;;;;6.28;4.05;;;;;;;17.79;66.55;102598.50;4993828;28;20464;-67
2022/08/09 02:31:03;;;;;;;6.28;4.00;;;;;;;17.69;66.58;102605.53;4993637;28;20477;-67
2022/08/09 02:33:43;;;;;;;6.47;3.95;;;;;;;17.70;66.48;102603.75;4993611;28;20043;-66
2022/08/09 02:36:17;;;;;;;11.23;4.53;;;;;;;17.77;66.07;102603.84;4993617;28;20034;-66
2022/08/09 02:38:49;;;;;;;7.30;4.10;;;;;;;17.72;66.18;102593.94;4993806;28;20027;-67
2022/08/09 02:41:18;;;;;;;;;;;;;;;18.00;63.44;102598.69;4993865;28;20030;-66
2022/08/09 02:43:47;;;;;;;7.93;4.00;;;;;;;17.76;65.76;102598.47;4993578;28;19910;-67
2022/08/09 02:46:15;;;;;;;7.57;4.07;;;;;;;17.76;65.83;102588.66;4993493;28;20104;-66
2022/08/09 02:48:42;;;;;;;7.47;4.20;;;;;;;17.74;65.73;102594.91;4995813;28;20030;-67
2022/08/09 02:51:11;;;;;;;6.32;3.97;;;;;;;17.80;65.82;102586.03;4997620;28;20524;-66
2022/08/09 02:53:43;;;;;;;7.43;4.25;;;;;;;17.73;65.69;102593.97;4980320;28;20037;-66
2022/08/09 02:56:10;;;;;;;5.85;4.05;;;;;;;17.70;66.15;102595.72;4997683;28;20027;-67
2022/08/09 02:58:37;;;;;;;9.43;4.32;;;;;;;17.59;66.71;102586.69;4997409;28;20129;-67
2022/08/09 03:01:06;;;;;;;6.65;4.25;;;;;;;17.59;66.31;102600.94;4997297;28;20515;-67
2022/08/09 03:03:32;;;;;;;7.60;4.53;;;;;;;17.64;66.16;102588.50;4997478;28;20045;-66
2022/08/09 03:06:00;;;;;;;8.43;4.32;;;;;;;17.69;66.20;102583.25;4997272;28;20026;-67
2022/08/09 03:08:27;;;;;;;10.27;4.60;;;;;;;17.62;66.41;102594.75;4979914;28;20031;-66
2022/08/09 03:10:54;;;;;;;7.55;4.53;;;;;;;17.59;66.52;102595.59;4997151;28;20027;-67
2022/08/09 03:13:21;;;;;;;9.57;5.03;;;;;;;17.69;65.99;102593.94;4997028;28;20102;-66
2022/08/09 03:15:47;;;;;;;8.93;4.90;;;;;;;17.53;66.65;102595.56;4997216;28;20499;-67
2022/08/09 03:18:13;;;;;;;8.57;4.80;;;;;;;17.46;66.96;102585.66;4997198;28;20392;-67
2022/08/09 03:20:41;;;;;;;11.52;4.50;;;;;;;17.41;67.49;102592.75;4995930;28;20031;-67
2022/08/09 03:23:06;;;;;;;7.50;4.65;;;;;;;17.40;67.15;102593.63;4979533;28;20031;-67
2022/08/09 03:25:33;;;;;;;12.27;4.72;;;;;;;17.37;67.15;102590.91;4997097;28;20057;-66
2022/08/09 03:28:00;;;;;;;8.75;4.50;;;;;;;17.28;67.71;102583.72;4996591;28;20113;-66
2022/08/09 03:30:27;;;;;;;6.53;4.60;;;;;;;17.35;67.25;102593.59;4997203;28;20026;-67
2022/08/09 03:32:55;;;;;;;7.88;4.63;;;;;;;17.35;67.47;102590.03;4996869;28;20098;-66
2022/08/09 03:35:20;;;;;;;7.30;4.45;;;;;;;17.31;67.73;102581.06;4996819;28;20078;-67
2022/08/09 03:37:46;;;;;;;9.55;4.63;;;;;;;17.34;67.59;102588.22;4996765;28;20027;-67
2022/08/09 03:40:12;;;;;;;8.68;4.68;;;;;;;17.31;67.60;102590.88;4996663;28;20396;-67
2022/08/09 03:42:37;;;;;;;6.60;4.25;;;;;;;17.32;67.79;102592.66;4996443;28;20046;-66
2022/08/09 03:45:04;;;;;;;8.30;4.57;;;;;;;17.23;68.11;102596.13;4996554;28;20442;-67
2022/08/09 03:47:30;;;;;;;7.00;4.68;;;;;;;17.23;67.86;102601.47;4996869;28;20376;-67
2022/08/09 03:49:56;;;;;;;7.45;4.57;;;;;;;17.17;68.10;102596.03;4996564;28;20060;-66
2022/08/09 03:52:23;;;;;;;9.73;4.30;;;;;;;17.17;68.09;102604.97;4996527;28;20399;-66
2022/08/09 03:54:51;;;;;;;5.93;4.40;;;;;;;17.11;68.36;102604.00;4996393;28;20035;-66
2022/08/09 03:57:17;;;;;;;9.40;4.35;;;;;;;17.17;68.02;102596.97;4996417;28;20594;-66
2022/08/09 03:59:43;;;;;;;9.30;4.68;;;;;;;17.03;68.70;102601.22;4995234;28;20432;-66
2022/08/09 04:02:09;;;;;;;7.43;4.28;;;;;;;17.03;68.61;102607.47;4996454;28;20077;-66
2022/08/09 04:04:35;;;;;;;5.72;4.43;;;;;;;17.06;68.55;102611.06;4996350;28;20105;-67
2022/08/09 04:07:01;;;;;;;10.70;4.63;;;;;;;17.12;68.07;102601.31;4996239;28;20038;-66
2022/08/09 04:09:27;;;;;;;6.65;4.50;;;;;;;17.19;67.99;102608.53;4996343;28;20023;-66
2022/08/09 04:12:16;;;;;;;9.20;4.65;;;;;;;17.16;67.99;102596.91;4995814;28;20560;-67
2022/08/09 04:14:42;;;;;;;10.48;4.53;;;;;;;17.19;67.50;102600.53;4996250;28;20030;-66
2022/08/09 04:17:07;;;;;;;5.75;4.35;;;;;;;17.14;67.81;102598.69;4996047;28;20105;-67
2022/08/09 04:19:33;;;;;;;7.88;4.93;;;;;;;17.05;68.34;102598.59;4996044;28;20392;-67
2022/08/09 04:22:00;;;;;;;6.65;4.80;;;;;;;17.09;67.90;102601.31;4995982;28;20031;-66
2022/08/09 04:24:25;;;;;;;7.50;4.82;;;;;;;17.23;67.83;102596.13;4995844;28;20026;-67
2022/08/09 04:26:52;;;;;;;7.68;5.10;;;;;;;17.10;68.04;102605.78;4995865;28;20098;-66
2022/08/09 04:29:17;;;;;;;8.10;4.93;;;;;;;17.21;68.00;102604.09;4995812;28;20026;-66
2022/08/09 04:31:43;;;;;;;8.55;5.20;;;;;;;17.17;67.68;102609.38;4995742;28;20023;-67
2022/08/09 04:34:09;;;;;;;8.88;4.95;;;;;;;17.26;67.30;102614.88;4995812;28;20484;-66
2022/08/09 04:36:34;;;;;;;9.30;5.60;;;;;;;17.20;67.92;102618.34;4995699;28;20022;-66
2022/08/09 04:39:04;;;;;;;7.70;5.03;;;;;;;17.21;67.79;102617.47;4995661;28;20592;-67
2022/08/09 04:41:31;;;;;;;9.63;5.20;;;;;;;17.12;68.26;102616.47;4995549;28;20065;-67
2022/08/09 04:43:56;;;;;;;8.38;5.15;;;;;;;17.15;68.48;102617.41;4996009;28;20045;-66
2022/08/09 04:46:22;;;;;;;9.05;5.47;;;;;;;17.10;68.29;102612.88;4995500;28;20034;-66
2022/08/09 04:48:48;;;;;;;8.20;5.22;;;;;;;17.10;68.59;102620.91;4995585;28;20472;-66
2022/08/09 04:51:14;;;;;;;10.00;5.65;;;;;;;17.06;68.80;102629.75;4977946;28;20029;-66
2022/08/09 04:53:39;;;;;;;7.72;5.32;;;;;;;17.03;68.91;102611.91;4977969;28;20031;-66
2022/08/09 04:56:05;;;;;;;8.52;5.18;;;;;;;17.03;68.92;102622.59;4995322;28;20422;-66
2022/08/09 04:58:31;;;;;;;8.68;5.15;;;;;;;17.12;68.68;102617.34;4995482;28;20025;-66
2022/08/09 05:00:56;;;;;;;11.05;5.50;;;;;;;17.13;69.21;102628.94;4995300;28;20492;-66
2022/08/09 05:03:22;;;;;;;8.20;5.43;;;;;;;17.08;69.53;102628.88;4995538;28;20031;-66
2022/08/09 05:05:48;;;;;;;11.75;5.60;;;;;;;17.23;69.08;102633.53;4995183;28;20042;-67
2022/08/09 05:08:13;;;;;;;9.55;5.70;;;;;;;17.18;69.53;102643.28;4994961;28;20034;-66
2022/08/09 05:10:39;;;;;;;10.13;5.85;;;;;;;17.31;69.46;102636.28;4995020;28;20026;-67
2022/08/09 05:13:04;;;;;;;9.30;5.53;;;;;;;17.27;69.77;102640.69;4994709;28;20484;-66
2022/08/09 05:15:30;;;;;;;10.48;5.63;;;;;;;17.26;70.05;102641.59;4995212;28;20036;-66
2022/08/09 05:17:55;;;;;;;8.63;5.97;;;;;;;17.27;70.27;102638.94;4994938;28;20388;-66
2022/08/09 05:20:21;;;;;;;10.45;5.90;;;;;;;17.33;70.28;102643.44;4994841;28;20065;-66
2022/08/09 05:22:49;;;;;;;8.45;5.90;;;;;;;17.42;70.16;102645.31;4994745;28;20384;-66
2022/08/09 05:25:15;;;;;;;10.98;5.63;;;;;;;17.50;70.26;102639.16;4994901;28;20042;-66
2022/08/09 05:27:41;;;;;;;10.88;5.80;;;;;;;17.60;70.17;102640.19;4994712;28;20047;-66
2022/08/09 05:30:07;;;;;;;8.45;6.05;;;;;;;17.66;70.29;102642.91;4994698;28;20518;-66
2022/08/09 05:32:33;;;;;;;8.32;6.10;;;;;;;17.79;69.97;102637.72;4994621;28;20038;-65
2022/08/09 05:34:58;;;;;;;13.32;6.60;;;;;;;17.87;69.77;102633.34;4977149;28;20117;-65
2022/08/09 05:37:25;;;;;;;10.73;6.50;;;;;;;18.00;70.02;102640.59;4977214;28;20034;-66
2022/08/09 05:39:51;;;;;;;8.80;5.93;;;;;;;18.07;69.80;102647.75;4994564;28;20113;-65
2022/08/09 05:42:17;;;;;;;7.65;5.82;;;;;;;18.22;69.26;102642.56;4994131;28;20082;-66
2022/08/09 05:44:42;;;;;;;11.65;6.43;;;;;;;18.39;69.00;102652.50;4994474;28;20105;-65
2022/08/09 05:47:07;;;;;;;10.25;6.35;;;;;;;18.46;68.96;102660.59;4994335;28;20105;-66
2022/08/09 05:49:33;;;;;;;8.38;6.22;;;;;;;18.58;69.08;102645.47;4994452;28;20041;-66
2022/08/09 05:51:58;;;;;;;9.73;6.13;;;;;;;18.64;68.32;102645.53;4994153;28;20117;-65
2022/08/09 05:54:23;;;;;;;8.50;6.00;;;;;;;18.85;68.15;102658.19;4976909;28;20417;-65
2022/08/09 05:56:49;;;;;;;9.32;6.22;;;;;;;18.90;68.30;102651.97;4994503;28;20041;-65
2022/08/09 05:59:14;;;;;;;8.93;6.45;;;;;;;19.03;67.28;102655.59;4994219;28;20026;-66
2022/08/09 06:01:41;;;;;;;13.35;6.78;;;;;;;19.10;67.83;102661.84;4994208;28;20485;-66
2022/08/09 06:04:06;;;;;;;12.90;6.57;;;;;;;19.19;66.87;102659.25;4960867;28;20392;-66
2022/08/09 06:06:32;;;;;;;8.77;6.05;;;;;;;19.35;67.08;102663.75;4993983;28;20019;-65
2022/08/09 06:08:57;;;;;;;11.73;6.20;;;;;;;19.53;65.83;102660.25;4994326;28;20117;-66
2022/08/09 06:11:22;;;;;;;10.50;6.53;;;;;;;19.65;65.42;102660.28;4993800;28;20480;-67
2022/08/09 06:13:48;;;;;;;10.90;6.75;;;;;;;19.73;65.82;102665.69;4994096;28;20091;-66
2022/08/09 06:16:13;;;;;;;15.82;6.30;;;;;;;19.88;65.17;102662.13;4976728;28;20551;-66
2022/08/09 06:18:39;;;;;;;10.82;6.20;;;;;;;20.08;64.42;102670.19;4993997;28;20030;-66
2022/08/09 06:21:05;;;;;;;10.55;6.30;;;;;;;20.11;64.10;102663.03;4993852;28;20026;-66
2022/08/09 06:23:32;;;;;;;11.18;5.95;;;;;;;20.29;63.70;102667.50;4993175;28;20026;-66
2022/08/09 06:25:58;;;;;;;10.77;6.75;;;;;;;20.35;63.15;102674.69;4976201;28;20109;-66
2022/08/09 06:28:23;;;;;;;13.80;6.63;;;;;;;20.48;63.68;102672.00;4993825;28;20018;-66
2022/08/09 06:30:49;;;;;;;9.25;6.00;;;;;;;20.63;62.73;102678.25;4976544;28;20033;-66
2022/08/09 06:33:15;;;;;;;10.70;6.60;;;;;;;20.83;62.16;102675.53;4993738;28;20487;-66
2022/08/09 06:35:40;;;;;;;11.20;6.30;;;;;;;20.99;61.92;102674.59;4993600;28;20038;-66
2022/08/09 06:38:06;;;;;;;8.48;5.97;;;;;;;21.19;60.77;102672.69;4993731;28;20029;-66
2022/08/09 06:40:32;;;;;;;9.65;6.15;;;;;;;21.42;60.25;102672.63;4993898;28;20026;-66
2022/08/09 06:42:59;;;;;;;10.27;5.78;;;;;;;21.48;59.55;102669.00;4993594;28;20049;-66
2022/08/09 06:45:25;;;;;;;8.40;5.80;;;;;;;21.62;59.20;102679.69;4993424;28;20027;-66
2022/08/09 06:47:50;;;;;;;8.30;5.95;;;;;;;21.75;58.12;102676.94;4993631;28;20027;-66
2022/08/09 06:50:16;;;;;;;9.20;5.72;;;;;;;21.83;58.23;102673.28;4993309;28;20026;-66
2022/08/09 06:52:44;;;;;;;9.23;6.00;;;;;;;21.94;57.72;102675.00;4993630;28;20484;-66
2022/08/09 06:55:14;;;;;;;8.25;5.80;;;;;;;21.99;57.61;102674.97;4993554;28;20054;-66
2022/08/09 06:57:40;;;;;;;10.13;5.70;;;;;;;22.32;57.19;102673.84;4976210;28;20031;-66
2022/08/09 07:00:06;;;;;;;12.27;6.13;;;;;;;22.40;56.26;102679.16;4993473;28;20066;-66
2022/08/09 07:02:31;;;;;;;12.00;5.75;;;;;;;22.61;55.85;102675.34;4993376;28;20034;-67
2022/08/09 07:04:57;;;;;;;8.30;5.85;;;;;;;22.73;56.18;102688.69;4976070;28;20030;-66
2022/08/09 07:07:22;;;;;;;9.13;5.57;;;;;;;23.04;54.83;102686.59;4993279;28;20089;-66
2022/08/09 07:09:47;;;;;;;7.57;5.40;;;;;;;23.26;53.98;102686.34;4993390;28;20105;-66
2022/08/09 07:12:13;;;;;;;10.27;5.82;;;;;;;23.29;53.89;102692.56;4991941;28;20035;-66
2022/08/09 07:14:38;;;;;;;10.18;5.55;;;;;;;23.53;52.80;102693.16;4993388;28;20109;-66
2022/08/09 07:17:04;;;;;;;7.93;5.55;;;;;;;23.64;52.19;102700.19;4993249;28;20035;-66
2022/08/09 07:19:29;;;;;;;9.52;5.68;;;;;;;23.77;51.71;102689.22;4993219;28;20035;-66
2022/08/09 07:21:54;;;;;;;8.00;5.15;;;;;;;23.94;52.25;102690.78;4993211;28;20019;-66
2022/08/09 07:24:20;;;;;;;15.00;5.50;;;;;;;24.15;51.65;102686.84;4993122;28;20034;-66
2022/08/09 07:26:45;;;;;;;9.13;5.40;;;;;;;24.25;50.09;102690.28;4984431;28;20082;-66
2022/08/09 07:29:11;;;;;;;11.43;5.70;;;;;;;24.36;50.47;102680.16;4973681;28;20050;-66
2022/08/09 07:31:36;;;;;;;12.85;5.32;;;;;;;24.46;50.93;102679.13;4973711;28;20035;-66
2022/08/09 07:34:02;;;;;;;8.35;4.80;;;;;;;24.72;49.47;102684.06;4957519;28;20030;-66
2022/08/09 07:36:29;;;;;;;8.68;5.03;;;;;;;24.85;49.49;102683.81;4960003;28;20082;-67
2022/08/09 07:38:56;;;;;;;7.82;4.75;;;;;;;24.96;49.04;102685.38;4977460;28;20035;-66
2022/08/09 07:41:22;;;;;;;10.95;5.03;;;;;;;24.97;48.50;102689.00;4977338;28;20401;-66
2022/08/09 07:43:47;;;;;;;8.38;4.22;;;;;;;25.18;47.81;102691.28;4959659;28;20035;-66
2022/08/09 07:46:12;;;;;;;7.65;4.15;;;;;;;25.27;46.50;102692.00;4977062;28;20038;-66
2022/08/09 07:48:38;;;;;;;9.93;4.38;;;;;;;25.37;46.30;102690.88;4976954;28;20560;-67
2022/08/09 07:51:03;;;;;;;9.95;4.50;;;;;;;25.62;46.55;102689.41;4976850;28;20027;-66
2022/08/09 07:53:29;;;;;;;6.25;4.70;;;;;;;25.83;45.90;102695.31;4977111;28;20023;-67
2022/08/09 07:55:54;;;;;;;9.50;4.38;;;;;;;26.03;45.88;102690.28;4976963;28;20027;-66
2022/08/09 07:58:19;;;;;;;9.05;4.38;;;;;;;26.11;45.28;102690.09;4977359;28;20058;-66
2022/08/09 08:00:45;;;;;;;7.47;3.80;;;;;;;26.46;45.39;102697.34;4976939;28;20027;-66
2022/08/09 08:03:10;;;;;;;8.00;3.92;;;;;;;26.71;45.69;102693.03;4976795;28;20117;-66
2022/08/09 08:05:36;;;;;;;8.90;3.97;;;;;;;26.73;44.04;102698.44;4976714;28;20035;-67
2022/08/09 08:08:02;;;;;;;8.43;4.00;;;;;;;26.95;43.53;102701.44;4976725;28;20118;-66
2022/08/09 08:10:28;;;;;;;10.75;3.80;;;;;;;26.93;42.82;102704.19;4976886;28;20027;-66
2022/08/09 08:12:53;;;;;;;5.45;3.47;;;;;;;27.08;41.18;102702.88;4976514;28;20038;-67
2022/08/09 08:15:19;;;;;;;6.38;3.63;;;;;;;27.19;41.52;102700.78;4976833;28;20035;-66
2022/08/09 08:17:52;;;;;;;9.60;4.13;;;;;;;27.41;41.76;102698.31;4976430;28;20057;-66
2022/08/09 08:20:21;;;;;;;11.95;3.85;;;;;;;27.40;41.92;102695.63;4976834;28;20027;-66
2022/08/09 08:22:47;;;;;;;6.68;3.78;;;;;;;27.58;41.75;102697.78;4976622;28;20121;-66
2022/08/09 08:25:12;;;;;;;7.55;3.58;;;;;;;27.63;40.79;102695.81;4976404;28;20109;-66
2022/08/09 08:27:38;;;;;;;5.93;3.15;;;;;;;27.86;39.74;102692.38;4991945;28;20411;-66
2022/08/09 08:30:05;;;;;;;6.72;3.58;;;;;;;27.84;39.15;102691.56;4995838;28;20026;-66
2022/08/09 08:32:31;;;;;;;5.85;3.20;;;;;;;27.93;39.04;102683.09;4995595;28;20156;-66
2022/08/09 08:34:57;;;;;;;8.43;3.78;;;;;;;27.92;38.88;102694.91;4995718;28;20041;-66
2022/08/09 08:37:23;;;;;;;8.25;3.50;;;;;;;27.81;39.56;102688.94;4995856;28;20031;-66
2022/08/09 08:39:48;;;;;;;8.05;3.20;;;;;;;27.89;39.24;102692.28;4995612;28;20034;-66
2022/08/09 08:42:14;;;;;;;6.57;3.00;;;;;;;28.09;39.15;102685.28;4995587;28;20030;-67
2022/08/09 08:44:42;;;;;;;5.72;2.90;;;;;;;28.18;38.05;102683.19;4995623;28;20038;-67
2022/08/09 08:47:08;;;;;;;7.05;3.20;;;;;;;28.40;37.62;102691.50;4995061;28;20018;-67
2022/08/09 08:49:39;;;;;;;6.13;2.80;;;;;;;28.36;37.25;102697.13;4995604;28;20031;-67
2022/08/09 08:52:06;;;;;;;6.95;2.90;;;;;;;28.45;36.79;102691.34;4977819;28;20026;-67
2022/08/09 08:54:33;;;;;;;5.85;2.80;;;;;;;28.44;36.85;102695.03;4995459;28;20037;-67
2022/08/09 08:56:58;;;;;;;6.18;3.00;;;;;;;28.40;36.74;102690.63;4995310;28;20425;-67
2022/08/09 08:59:24;;;;;;;5.38;2.80;;;;;;;28.51;37.21;102692.97;4995305;28;20150;-67
2022/08/09 09:01:50;;;;;;;5.47;2.40;;;;;;;28.48;36.55;102698.50;4995176;28;20534;-66
2022/08/09 09:04:17;;;;;;;7.72;2.50;;;;;;;28.66;35.74;102698.75;4995243;28;20058;-67
2022/08/09 09:06:44;;;;;;;5.10;2.75;;;;;;;28.66;35.83;102703.31;4995404;28;20130;-66
2022/08/09 09:09:23;;;;;;;4.47;2.40;;;;;;;28.91;36.19;102704.19;4993902;28;20033;-66
2022/08/09 09:11:49;;;;;;;4.18;2.20;;;;;;;29.12;35.24;102699.81;4995181;28;20023;-66
2022/08/09 09:14:23;;;;;;;8.07;2.35;;;;;;;29.14;35.95;102702.47;4994894;28;20464;-66
2022/08/09 09:16:49;;;;;;;5.97;2.20;;;;;;;29.38;33.88;102711.56;4995166;28;20503;-66
2022/08/09 09:19:14;;;;;;;4.50;2.15;;;;;;;29.65;33.12;102710.50;4994889;28;20468;-67
2022/08/09 09:22:16;;;;;;;5.05;2.10;;;;;;;29.71;33.74;102713.91;4994796;28;20034;-66
2022/08/09 09:24:45;;;;;;;5.45;2.40;;;;;;;29.55;34.23;102710.88;4934856;29;20111;-66
2022/08/09 09:27:13;;;;;;;4.07;2.00;;;;;;;29.67;32.97;102716.75;4969936;28;20435;-67
2022/08/09 09:29:42;;;;;;;4.30;1.98;;;;;;;29.65;32.61;102715.06;4994755;28;20026;-67
2022/08/09 09:32:08;;;;;;;4.70;2.13;;;;;;;29.79;32.81;102715.38;4994481;28;20050;-67
2022/08/09 09:34:35;;;;;;;5.95;2.20;;;;;;;29.94;32.67;102711.16;4994692;28;20038;-67
2022/08/09 09:37:02;;;;;;;5.78;2.17;;;;;;;30.07;32.20;102719.72;4994413;28;20022;-67
2022/08/09 09:39:29;;;;;;;6.78;2.30;;;;;;;30.18;32.47;102701.97;4994545;28;20109;-66
2022/08/09 09:41:55;;;;;;;5.50;2.10;;;;;;;30.25;32.33;102694.44;4994529;28;20373;-66
2022/08/09 09:44:28;;;;;;;3.70;1.90;;;;;;;30.27;33.19;102697.06;4994388;28;20102;-67
2022/08/09 09:46:56;;;;;;;5.38;1.90;;;;;;;30.68;31.47;102696.16;4977167;28;20041;-67
2022/08/09 09:49:23;;;;;;;4.22;1.90;;;;;;;30.73;30.54;102704.19;4994317;28;20026;-67
2022/08/09 09:51:48;;;;;;;6.68;2.00;;;;;;;30.83;30.93;102700.06;4994284;28;20022;-67
2022/08/09 09:54:21;;;;;;;6.63;2.10;;;;;;;30.88;31.64;102700.78;4994253;28;20495;-67
2022/08/09 09:56:48;;;;;;;5.32;2.20;;;;;;;31.01;31.30;102705.69;4993794;28;20035;-67
2022/08/09 09:59:19;;;;;;;5.35;2.15;;;;;;;31.03;30.99;102701.00;4994068;28;20065;-67
2022/08/09 10:01:45;;;;;;;5.70;2.00;;;;;;;30.92;31.01;102699.69;4994103;28;20026;-67
2022/08/09 10:04:18;;;;;;;4.60;1.90;;;;;;;31.00;30.31;102695.69;4994108;28;20031;-67
2022/08/09 10:06:45;;;;;;;5.00;1.90;;;;;;;30.95;31.29;102698.63;4994037;28;20026;-67
2022/08/09 10:09:12;;;;;;;4.28;2.10;;;;;;;31.10;30.17;102708.84;4994193;28;20109;-67
2022/08/09 10:11:39;;;;;;;4.22;1.75;;;;;;;31.38;29.76;102704.84;4993801;28;20026;-67
2022/08/09 10:14:05;;;;;;;4.90;1.95;;;;;;;31.52;28.98;102709.66;4993934;28;20041;-67
2022/08/09 10:16:37;;;;;;;4.47;1.90;;;;;;;31.70;29.54;102705.16;4993937;28;20026;-67
2022/08/09 10:19:08;;;;;;;5.20;1.80;;;;;;;31.57;29.80;102699.41;4993885;28;20034;-67
2022/08/09 10:21:44;;;;;;;5.45;1.98;;;;;;;32.06;29.64;102692.41;4993868;28;20034;-67
2022/08/09 10:24:10;;;;;;;6.63;1.70;;;;;;;31.94;28.47;102693.03;4994089;28;20026;-67
2022/08/09 10:26:36;;;;;;;4.82;1.58;;;;;;;32.17;28.13;102684.56;4992569;28;20500;-67
2022/08/09 10:29:03;;;;;;;3.00;1.60;;;;;;;32.36;27.66;102687.22;4993642;28;20612;-67
2022/08/09 10:31:29;;;;;;;4.80;1.70;;;;;;;32.30;27.34;102694.88;4993773;28;20049;-67
2022/08/09 10:33:54;;;;;;;6.32;1.85;;;;;;;32.15;27.60;102688.31;4993743;28;20380;-67
2022/08/09 10:36:20;;;;;;;3.42;1.58;;;;;;;31.95;28.43;102685.69;4993839;28;20038;-67
2022/08/09 10:38:46;;;;;;;5.13;1.80;;;;;;;32.29;27.04;102679.41;4993772;28;20448;-67
2022/08/09 10:41:14;;;;;;;4.90;1.70;;;;;;;32.14;27.11;102681.97;4993588;28;20019;-66
2022/08/09 10:43:43;;;;;;;3.22;1.60;;;;;;;32.27;27.98;102678.59;4993535;28;20112;-67
2022/08/09 10:46:50;;;;;;;3.03;1.60;;;;;;;32.64;26.92;102675.75;4993615;28;20414;-66
2022/08/09 10:49:15;;;;;;;3.47;1.83;;;;;;;32.31;26.19;102670.16;4976571;28;20026;-67
2022/08/09 10:52:18;;;;;;;3.03;1.35;;;;;;;32.20;26.62;102671.66;4993567;28;20030;-67
2022/08/09 10:54:43;;;;;;;4.38;1.58;;;;;;;32.07;25.60;102672.28;4993432;28;20034;-67
2022/08/09 10:57:12;;;;;;;3.78;1.83;;;;;;;32.02;26.61;102666.19;4993576;28;20546;-67
2022/08/09 10:59:38;;;;;;;5.90;1.60;;;;;;;32.35;26.30;102663.56;4993441;28;20121;-67
2022/08/09 11:02:06;;;;;;;3.40;1.73;;;;;;;32.52;25.77;102662.69;4993406;28;20068;-66
2022/08/09 11:04:32;;;;;;;4.72;1.80;;;;;;;32.76;25.82;102666.00;4993375;28;20488;-67
2022/08/09 11:06:58;;;;;;;2.80;1.77;;;;;;;32.54;26.92;102662.59;4993473;28;20022;-67
2022/08/09 11:09:41;;;;;;;3.67;1.60;;;;;;;32.67;27.23;102658.25;4995223;28;20031;-67
2022/08/09 11:12:11;;;;;;;4.80;1.92;;;;;;;33.01;26.64;102664.66;4997016;28;20106;-67
2022/08/09 11:14:38;;;;;;;2.45;1.52;;;;;;;33.19;25.79;102666.41;4997375;28;20030;-67
2022/08/09 11:17:13;;;;;;;4.50;2.05;;;;;;;33.40;25.04;102667.94;4997022;28;20365;-68
2022/08/09 11:20:07;;;;;;;2.72;1.60;;;;;;;33.44;25.62;102665.91;4997284;28;20035;-67
2022/08/09 11:22:39;;;;;;;6.63;1.75;;;;;;;33.43;25.49;102661.38;4997236;28;20539;-67
2022/08/09 11:25:08;;;;;;;;;;;;;;;33.84;25.96;102666.34;4997652;28;20045;-67
2022/08/09 11:27:39;;;;;;;3.28;1.60;;;;;;;33.74;25.42;102665.09;4996863;28;19922;-67